Time;durP1;ratioP1;P1;durP2;ratioP2;P2;SDS_P1;SDS_P2;PMS_P1;PMS_P2;Temp;Humidity;BMP_temperature;BMP_pressure;BME280_temperature;BME280_humidity;BME280_pressure;Samples;Min_cycle;Max_cycle;Signal;HPM_P1;HPM_P2
2022/12/18 00:00:41;;;;;;;111.17;31.53;;;;;;;3.90;55.57;102861.66;5113455;28;20023;-71
2022/12/18 00:03:06;;;;;;;115.90;32.43;;;;;;;3.78;55.91;102857.53;5113548;28;20043;-71
2022/12/18 00:05:32;;;;;;;93.03;26.17;;;;;;;3.38;55.73;102851.25;5130976;28;20260;-71
2022/12/18 00:07:57;;;;;;;109.67;29.60;;;;;;;3.08;56.32;102846.25;5128978;27;20031;-71
2022/12/18 00:10:23;;;;;;;109.93;31.73;;;;;;;2.97;58.32;102842.22;5112623;28;20470;-71
2022/12/18 00:12:48;;;;;;;124.80;34.43;;;;;;;4.01;53.93;102835.41;5130374;28;20102;-71
2022/12/18 00:15:13;;;;;;;124.93;32.97;;;;;;;4.16;53.22;102840.44;5112507;28;20077;-71
2022/12/18 00:17:39;;;;;;;120.03;33.60;;;;;;;4.54;52.42;102844.00;5112040;28;20022;-71
2022/12/18 00:20:05;;;;;;;130.70;34.83;;;;;;;3.72;54.49;102845.19;5112383;28;20118;-71
2022/12/18 00:22:30;;;;;;;130.67;35.30;;;;;;;4.09;53.82;102844.44;5111003;28;20026;-71
2022/12/18 00:24:55;;;;;;;144.47;37.37;;;;;;;3.74;55.28;102847.06;5128772;27;20092;-71
2022/12/18 00:27:21;;;;;;;106.30;26.83;;;;;;;2.78;57.71;102856.72;5111368;28;20626;-71
2022/12/18 00:29:48;;;;;;;121.97;32.23;;;;;;;3.73;55.86;102859.91;5131519;28;20035;-71
2022/12/18 00:32:13;;;;;;;114.00;31.03;;;;;;;3.21;56.05;102853.84;5113242;28;20378;-71
2022/12/18 00:34:39;;;;;;;121.03;32.40;;;;;;;4.12;54.01;102849.78;5112641;28;20296;-71
2022/12/18 00:37:04;;;;;;;125.27;30.47;;;;;;;3.83;55.17;102840.56;5110747;27;20019;-71
2022/12/18 00:39:29;;;;;;;121.00;29.23;;;;;;;3.82;53.89;102834.50;5110949;28;20398;-71
2022/12/18 00:44:39;;;;;;;111.70;31.97;;;;;;;4.23;52.46;102838.25;5135632;27;20042;-71
2022/12/18 00:47:04;;;;;;;122.23;31.37;;;;;;;4.36;52.02;102838.81;5114525;27;20277;-71
2022/12/18 00:49:29;;;;;;;92.60;28.80;;;;;;;4.11;51.78;102829.88;5117118;27;20023;-71
2022/12/18 00:51:55;;;;;;;104.63;29.17;;;;;;;4.47;52.05;102836.75;5135080;27;20406;-71
2022/12/18 00:54:20;;;;;;;103.80;29.43;;;;;;;4.78;51.30;102839.06;5114699;27;20470;-71
2022/12/18 00:56:46;;;;;;;158.37;31.93;;;;;;;4.02;52.89;102855.31;5133937;27;20393;-71
2022/12/18 00:59:11;;;;;;;99.27;28.87;;;;;;;4.08;53.29;102853.03;5115934;27;20035;-71
2022/12/18 01:01:36;;;;;;;83.30;22.10;;;;;;;2.93;54.89;102853.19;5115071;27;20052;-71
2022/12/18 01:04:03;;;;;;;105.87;28.87;;;;;;;3.59;55.80;102850.59;5135496;27;20038;-71
2022/12/18 01:06:29;;;;;;;111.20;27.13;;;;;;;3.41;56.45;102851.41;5116390;27;20494;-71
2022/12/18 01:08:55;;;;;;;105.17;30.40;;;;;;;3.47;54.01;102850.84;5112173;27;20855;-71
2022/12/18 01:11:22;;;;;;;113.37;28.17;;;;;;;3.32;55.46;102861.25;5134988;27;20326;-71
2022/12/18 01:13:47;;;;;;;110.07;28.80;;;;;;;2.85;57.26;102858.81;5116340;27;20395;-71
2022/12/18 01:16:14;;;;;;;104.63;25.70;;;;;;;2.80;57.56;102860.28;5114756;27;20387;-71
2022/12/18 01:18:40;;;;;;;97.90;29.97;;;;;;;4.08;53.66;102855.63;5116469;27;20030;-71
2022/12/18 01:21:11;;;;;;;104.07;29.10;;;;;;;2.96;56.06;102861.09;5114497;27;20277;-71
2022/12/18 01:23:37;;;;;;;100.00;30.70;;;;;;;4.02;53.86;102857.91;5114365;27;20441;-71
2022/12/18 01:26:12;;;;;;;124.93;30.17;;;;;;;4.31;52.38;102859.31;5132526;27;20290;-72
2022/12/18 01:28:37;;;;;;;110.23;30.07;;;;;;;2.70;56.40;102857.97;5133946;27;20265;-71
2022/12/18 01:31:20;;;;;;;115.17;28.53;;;;;;;2.95;55.66;102854.16;5133491;27;20651;-71
2022/12/18 01:33:45;;;;;;;104.43;29.25;;;;;;;2.95;56.79;102869.66;5133555;27;20088;-71
2022/12/18 01:36:18;;;;;;;119.43;27.43;;;;;;;2.66;56.85;102866.38;5114466;27;20050;-71
2022/12/18 01:38:44;;;;;;;;;;;;;;;3.22;54.92;102870.22;5133219;27;20131;-71
2022/12/18 01:41:10;;;;;;;79.63;25.63;;;;;;;3.71;53.80;102866.72;5133592;27;19911;-71
2022/12/18 01:43:41;;;;;;;101.60;28.10;;;;;;;3.84;54.43;102863.91;5114481;27;20031;-71
2022/12/18 01:46:07;;;;;;;91.60;25.37;;;;;;;2.74;56.91;102880.59;5115751;27;20020;-71
2022/12/18 01:48:32;;;;;;;103.77;27.03;;;;;;;3.19;56.00;102886.47;5134044;27;20273;-71
2022/12/18 01:51:01;;;;;;;78.10;25.57;;;;;;;3.30;54.46;102881.88;5129766;27;20035;-71
2022/12/18 01:53:26;;;;;;;97.03;27.07;;;;;;;4.11;52.64;102879.06;5133015;27;20095;-71
2022/12/18 01:55:55;;;;;;;99.27;26.53;;;;;;;3.82;52.28;102878.50;5115693;27;20277;-71
2022/12/18 01:58:27;;;;;;;91.03;27.67;;;;;;;2.89;55.42;102891.75;5114604;27;20030;-71
2022/12/18 02:00:55;;;;;;;86.63;27.93;;;;;;;3.28;54.96;102895.50;5114400;27;20289;-70
2022/12/18 02:03:20;;;;;;;86.43;25.80;;;;;;;3.20;54.35;102896.00;5132292;27;20319;-71
2022/12/18 02:06:00;;;;;;;94.17;28.03;;;;;;;3.89;52.83;102888.34;5131492;27;20748;-71
2022/12/18 02:08:55;;;;;;;103.73;27.07;;;;;;;4.11;52.22;102886.81;5115147;27;20122;-71
2022/12/18 02:11:57;;;;;;;97.80;28.40;;;;;;;3.88;52.57;102891.72;5076892;27;20273;-71
2022/12/18 02:14:25;;;;;;;84.60;25.90;;;;;;;2.94;53.16;102893.69;5111593;27;20726;-71
2022/12/18 02:17:10;;;;;;;98.17;27.53;;;;;;;4.24;51.97;102884.03;5113704;27;20292;-71
2022/12/18 02:20:06;;;;;;;94.87;29.73;;;;;;;3.81;52.11;102874.13;5133141;27;20776;-71
2022/12/18 02:22:50;;;;;;;92.97;27.00;;;;;;;3.37;53.33;102875.31;5115396;27;20609;-71
2022/12/18 02:25:26;;;;;;;103.83;26.23;;;;;;;3.13;52.47;102880.06;5131694;27;20831;-71
2022/12/18 02:27:52;;;;;;;91.03;26.40;;;;;;;3.73;53.05;102872.84;5132099;27;20280;-71
2022/12/18 02:30:18;;;;;;;91.03;24.77;;;;;;;3.70;52.39;102865.81;5112112;27;20341;-71
2022/12/18 02:32:50;;;;;;;90.50;25.97;;;;;;;3.01;53.09;102875.16;5131918;27;20322;-71
2022/12/18 02:35:25;;;;;;;91.32;27.48;;;;;;;3.04;54.57;102880.47;5113905;27;20284;-71
2022/12/18 02:37:51;;;;;;;97.70;27.97;;;;;;;3.30;54.00;102881.88;5114928;27;20019;-71
2022/12/18 02:40:18;;;;;;;94.43;29.10;;;;;;;3.59;53.17;102879.91;5132436;27;20276;-71
2022/12/18 02:42:44;;;;;;;86.80;28.40;;;;;;;3.18;53.01;102882.09;5133552;27;20869;-71
2022/12/18 02:45:10;;;;;;;95.60;27.77;;;;;;;4.05;50.76;102869.31;5130032;27;20375;-71
2022/12/18 02:47:43;;;;;;;96.50;28.93;;;;;;;3.49;53.05;102865.63;5113881;27;20542;-71
2022/12/18 02:50:35;;;;;;;98.03;30.07;;;;;;;3.63;52.29;102857.69;5133124;27;20543;-71
2022/12/18 02:53:42;;;;;;;103.22;28.45;;;;;;;3.88;52.39;102849.44;5132137;27;20287;-70
2022/12/18 02:56:20;;;;;;;116.57;28.57;;;;;;;3.62;52.67;102853.31;5107924;27;20039;-71
2022/12/18 02:59:07;;;;;;;90.30;24.77;;;;;;;3.10;53.48;102844.63;5131101;27;20280;-71
2022/12/18 03:02:16;;;;;;;88.23;25.63;;;;;;;4.27;49.91;102838.38;5110375;27;20397;-71
2022/12/18 03:04:41;;;;;;;92.37;24.00;;;;;;;3.39;52.41;102829.75;5101325;27;20288;-71
2022/12/18 03:07:15;;;;;;;86.10;25.47;;;;;;;2.97;52.86;102837.91;5131524;27;20340;-70
2022/12/18 03:09:46;;;;;;;79.93;25.27;;;;;;;3.28;52.28;102817.97;5113226;27;20023;-71
2022/12/18 03:12:22;;;;;;;94.20;25.13;;;;;;;1.92;54.59;102820.94;5113318;27;20633;-71
2022/12/18 03:14:54;;;;;;;79.60;24.03;;;;;;;2.81;53.32;102819.81;5129660;27;20383;-71
2022/12/18 03:17:22;;;;;;;85.47;26.77;;;;;;;3.20;52.04;102815.88;5131649;27;20296;-71
2022/12/18 03:19:50;;;;;;;85.47;23.90;;;;;;;3.17;51.50;102815.72;5132445;27;20524;-71
2022/12/18 03:22:16;;;;;;;84.00;24.80;;;;;;;3.01;52.42;102813.16;5113241;27;20273;-71
2022/12/18 03:24:41;;;;;;;105.10;27.10;;;;;;;2.64;53.81;102826.69;5112919;27;20288;-71
2022/12/18 03:27:12;;;;;;;61.77;19.23;;;;;;;2.02;55.46;102818.97;5130441;27;20066;-71
2022/12/18 03:29:45;;;;;;;78.57;25.37;;;;;;;2.86;53.13;102814.09;5130492;27;20028;-70
2022/12/18 03:32:16;;;;;;;81.87;24.63;;;;;;;3.15;52.76;102822.50;5109739;27;20288;-71
2022/12/18 03:34:43;;;;;;;85.27;27.63;;;;;;;3.24;52.04;102819.50;5128962;27;20299;-71
2022/12/18 03:37:09;;;;;;;88.77;26.37;;;;;;;3.47;51.02;102815.50;5108100;27;20288;-71
2022/12/18 03:39:35;;;;;;;84.47;23.53;;;;;;;3.46;50.91;102808.59;5112965;27;20292;-71
2022/12/18 03:42:31;;;;;;;87.43;25.17;;;;;;;2.63;52.08;102814.56;5112793;27;20038;-71
2022/12/18 03:44:59;;;;;;;85.57;24.63;;;;;;;3.21;52.93;102809.91;5112244;27;20027;-71
2022/12/18 03:47:29;;;;;;;83.57;25.13;;;;;;;3.24;52.17;102809.16;5130740;27;20383;-71
2022/12/18 03:50:22;;;;;;;85.47;24.40;;;;;;;3.23;52.30;102795.34;5111430;27;20338;-71
2022/12/18 03:52:55;;;;;;;70.30;24.30;;;;;;;3.01;52.12;102803.69;5131480;27;20380;-71
2022/12/18 03:55:22;;;;;;;85.22;23.98;;;;;;;3.60;50.28;102795.44;5111622;27;20288;-71
2022/12/18 03:57:49;;;;;;;80.83;24.90;;;;;;;2.74;52.53;102797.94;5110824;28;20123;-71
2022/12/18 04:00:18;;;;;;;71.67;22.83;;;;;;;2.76;52.01;102800.59;5113306;28;20272;-71
2022/12/18 04:02:49;;;;;;;81.43;25.20;;;;;;;3.65;49.51;102788.81;5113096;28;20442;-71
2022/12/18 04:05:15;;;;;;;71.43;23.60;;;;;;;3.42;50.04;102792.81;5109710;27;20389;-70
2022/12/18 04:07:43;;;;;;;80.60;24.47;;;;;;;3.49;50.28;102787.13;5112111;28;20280;-71
2022/12/18 04:10:10;;;;;;;82.53;25.17;;;;;;;3.64;49.48;102787.03;5112668;28;20322;-71
2022/12/18 04:12:37;;;;;;;70.77;23.40;;;;;;;3.15;50.95;102801.81;5112386;28;20319;-71
2022/12/18 04:15:02;;;;;;;77.50;24.53;;;;;;;3.18;49.88;102801.09;5113687;27;20373;-71
2022/12/18 04:17:28;;;;;;;80.37;25.23;;;;;;;3.67;49.32;102797.53;5114496;27;20783;-70
2022/12/18 04:19:53;;;;;;;82.60;26.93;;;;;;;3.08;49.91;102804.91;5114835;27;20034;-71
2022/12/18 04:22:19;;;;;;;79.77;25.57;;;;;;;3.75;48.19;102796.22;5116454;27;20031;-70
2022/12/18 04:24:44;;;;;;;77.93;26.03;;;;;;;3.07;49.69;102795.38;5134615;27;20031;-71
2022/12/18 04:27:09;;;;;;;79.00;24.43;;;;;;;3.44;48.48;102804.13;5135682;27;20470;-71
2022/12/18 04:29:35;;;;;;;72.50;24.17;;;;;;;2.56;49.75;102802.13;5117251;27;20026;-71
2022/12/18 04:32:00;;;;;;;79.73;24.67;;;;;;;2.67;50.23;102806.16;5114812;27;20026;-71
2022/12/18 04:34:26;;;;;;;83.27;28.80;;;;;;;3.21;49.04;102802.16;5116688;27;20068;-71
2022/12/18 04:36:51;;;;;;;81.23;26.27;;;;;;;2.62;50.28;102812.78;5116267;27;20394;-71
2022/12/18 04:39:17;;;;;;;78.37;27.63;;;;;;;3.08;49.46;102815.25;5134852;27;20027;-71
2022/12/18 04:41:42;;;;;;;75.77;25.43;;;;;;;3.13;48.78;102811.22;5134184;27;20102;-71
2022/12/18 04:44:07;;;;;;;86.13;26.97;;;;;;;2.49;50.18;102817.28;5130228;27;20035;-71
2022/12/18 04:46:33;;;;;;;77.07;27.03;;;;;;;2.70;50.23;102816.66;5133451;27;20034;-71
2022/12/18 04:48:58;;;;;;;82.30;27.33;;;;;;;2.85;49.43;102820.06;5116924;27;20023;-71
2022/12/18 04:51:23;;;;;;;68.13;23.83;;;;;;;3.04;48.51;102823.63;5133001;27;20023;-70
2022/12/18 04:53:49;;;;;;;84.80;27.57;;;;;;;3.07;48.73;102822.91;5115485;27;20023;-71
2022/12/18 04:56:15;;;;;;;82.93;25.53;;;;;;;2.91;48.91;102818.63;5115413;27;20060;-71
2022/12/18 04:58:43;;;;;;;83.37;25.83;;;;;;;2.77;49.64;102812.72;5116758;27;20050;-71
2022/12/18 05:01:09;;;;;;;80.13;28.27;;;;;;;2.25;50.17;102805.59;5115743;27;20300;-72
2022/12/18 05:03:35;;;;;;;84.97;28.70;;;;;;;2.52;49.64;102804.53;5116303;27;20371;-70
2022/12/18 05:06:01;;;;;;;84.37;27.67;;;;;;;3.26;47.89;102798.91;5114880;27;20283;-71
2022/12/18 05:08:26;;;;;;;81.60;26.17;;;;;;;2.98;48.63;102803.53;5134473;27;20269;-71
2022/12/18 05:11:09;;;;;;;85.20;27.57;;;;;;;3.02;49.16;102804.56;5134098;27;20034;-71
2022/12/18 05:13:35;;;;;;;78.82;23.88;;;;;;;2.35;48.98;102813.06;5132279;27;20483;-70
2022/12/18 05:16:01;;;;;;;80.40;25.37;;;;;;;2.65;50.01;102818.09;5115148;27;20019;-71
2022/12/18 05:18:26;;;;;;;87.70;25.63;;;;;;;2.65;50.35;102818.09;5111566;27;20292;-71
2022/12/18 05:20:53;;;;;;;83.73;26.83;;;;;;;2.85;49.00;102821.75;5115739;27;20393;-70
2022/12/18 05:23:19;;;;;;;82.13;26.90;;;;;;;2.49;49.47;102816.38;5115506;27;20023;-71
2022/12/18 05:25:54;;;;;;;82.27;27.03;;;;;;;2.58;50.00;102811.72;5095141;28;20678;-70
2022/12/18 05:28:20;;;;;;;80.23;26.30;;;;;;;2.87;48.56;102808.13;5094846;28;20285;-70
2022/12/18 05:30:50;;;;;;;84.67;25.53;;;;;;;2.13;49.67;102806.69;5099320;27;20690;-70
2022/12/18 05:33:16;;;;;;;73.43;24.97;;;;;;;2.57;48.80;102804.78;5132773;27;20288;-70
2022/12/18 05:35:41;;;;;;;76.80;26.00;;;;;;;2.20;48.76;102808.81;5114518;27;20413;-71
2022/12/18 05:38:06;;;;;;;88.23;27.70;;;;;;;1.92;49.61;102806.34;5134614;27;20031;-71
2022/12/18 05:40:32;;;;;;;74.53;26.30;;;;;;;2.07;48.61;102802.88;5131871;27;20110;-71
2022/12/18 05:42:57;;;;;;;79.87;26.27;;;;;;;1.81;50.26;102798.00;5115287;27;20509;-71
2022/12/18 05:45:22;;;;;;;78.33;24.37;;;;;;;2.36;49.63;102794.16;5133419;27;20089;-71
2022/12/18 05:47:48;;;;;;;83.10;26.73;;;;;;;1.86;49.72;102795.69;5133389;27;20072;-71
2022/12/18 05:50:13;;;;;;;69.13;25.83;;;;;;;1.81;49.40;102792.84;5115109;27;20051;-71
2022/12/18 05:52:39;;;;;;;78.03;26.37;;;;;;;1.66;49.79;102791.94;5114599;27;20031;-71
2022/12/18 05:55:04;;;;;;;66.00;24.00;;;;;;;2.62;47.82;102792.13;5115107;27;20041;-71
2022/12/18 05:57:30;;;;;;;74.67;24.33;;;;;;;2.17;48.25;102788.00;5113002;27;20482;-71
2022/12/18 05:59:55;;;;;;;66.80;23.07;;;;;;;2.62;47.40;102793.00;5113952;27;20478;-70
2022/12/18 06:02:20;;;;;;;75.23;26.20;;;;;;;1.94;49.19;102791.84;5115307;27;20051;-70
2022/12/18 06:04:46;;;;;;;68.83;23.43;;;;;;;1.62;49.87;102790.91;5112285;27;20031;-70
2022/12/18 06:07:12;;;;;;;65.97;23.67;;;;;;;2.20;48.81;102782.13;5110584;27;20030;-70
2022/12/18 06:09:38;;;;;;;61.73;22.80;;;;;;;2.05;48.62;102787.31;5115359;27;20501;-71
2022/12/18 06:12:03;;;;;;;68.53;22.47;;;;;;;2.23;48.15;102781.41;5113439;27;20367;-71
2022/12/18 06:14:29;;;;;;;69.07;24.20;;;;;;;1.92;49.10;102779.66;5115229;27;20159;-71
2022/12/18 06:16:54;;;;;;;70.70;22.83;;;;;;;2.03;48.64;102773.41;5112619;27;19919;-70
2022/12/18 06:19:20;;;;;;;64.40;22.80;;;;;;;2.22;48.36;102769.28;5114329;27;20078;-71
2022/12/18 06:21:45;;;;;;;61.83;23.67;;;;;;;1.95;49.04;102770.44;5114568;27;20039;-70
2022/12/18 06:24:11;;;;;;;67.17;22.03;;;;;;;1.84;49.25;102761.16;5114318;27;20034;-71
2022/12/18 06:26:39;;;;;;;64.87;22.10;;;;;;;2.38;47.69;102752.13;5112257;27;20592;-70
2022/12/18 06:29:05;;;;;;;68.20;21.97;;;;;;;2.05;48.49;102761.50;5126142;27;20027;-70
2022/12/18 06:31:30;;;;;;;58.10;22.43;;;;;;;2.44;47.47;102761.91;5132889;27;20276;-71
2022/12/18 06:33:56;;;;;;;62.70;23.30;;;;;;;1.77;48.29;102754.81;5114283;27;20031;-71
2022/12/18 06:36:22;;;;;;;60.83;21.47;;;;;;;0.95;50.07;102764.63;5112547;27;20055;-70
2022/12/18 06:38:47;;;;;;;53.07;20.23;;;;;;;1.66;48.71;102758.44;5110307;27;20069;-70
2022/12/18 06:41:15;;;;;;;52.27;21.00;;;;;;;1.71;48.74;102758.72;5112909;27;20072;-70
2022/12/18 06:43:41;;;;;;;59.43;20.30;;;;;;;1.73;48.52;102749.38;5114770;27;20072;-71
2022/12/18 06:46:06;;;;;;;52.90;19.70;;;;;;;1.46;49.11;102749.56;5132459;27;20288;-70
2022/12/18 06:48:32;;;;;;;51.13;19.07;;;;;;;1.72;47.75;102751.06;5114799;27;20058;-70
2022/12/18 06:50:58;;;;;;;52.20;18.07;;;;;;;0.62;50.23;102751.47;5113436;27;20051;-70
2022/12/18 06:53:23;;;;;;;52.77;20.37;;;;;;;0.81;50.54;102753.44;5110924;27;20023;-70
2022/12/18 06:55:49;;;;;;;42.47;19.00;;;;;;;0.79;50.90;102745.63;5132106;27;20055;-70
2022/12/18 06:58:15;;;;;;;48.70;18.87;;;;;;;1.52;49.16;102732.78;5132908;27;20073;-70
2022/12/18 07:00:40;;;;;;;55.47;20.17;;;;;;;1.68;49.19;102734.53;5130545;27;20031;-70
2022/12/18 07:03:06;;;;;;;50.67;17.67;;;;;;;1.09;49.49;102729.38;5114250;27;20041;-70
2022/12/18 07:05:31;;;;;;;43.97;16.77;;;;;;;0.80;49.40;102731.97;5112828;27;20023;-70
2022/12/18 07:07:57;;;;;;;46.10;18.13;;;;;;;1.20;49.29;102717.13;5111418;27;20031;-70
2022/12/18 07:10:23;;;;;;;56.00;19.50;;;;;;;1.72;48.64;102720.13;5132748;27;20071;-71
2022/12/18 07:12:48;;;;;;;49.77;18.07;;;;;;;1.52;48.94;102722.47;5131731;27;20832;-70
2022/12/18 07:15:14;;;;;;;39.67;15.70;;;;;;;0.42;50.51;102724.50;5113463;27;20051;-71
2022/12/18 07:17:39;;;;;;;49.67;19.17;;;;;;;1.59;48.61;102713.38;5129537;27;20459;-70
2022/12/18 07:20:05;;;;;;;43.13;16.70;;;;;;;0.48;50.15;102710.31;5113337;27;20027;-70
2022/12/18 07:22:30;;;;;;;50.60;19.37;;;;;;;1.60;49.00;102691.94;5110038;27;20054;-70
2022/12/18 07:24:56;;;;;;;44.10;20.83;;;;;;;1.31;49.18;102685.13;5112877;27;20030;-70
2022/12/18 07:27:22;;;;;;;52.63;20.00;;;;;;;1.74;47.19;102671.22;5110912;27;20024;-70
2022/12/18 07:29:47;;;;;;;50.93;19.77;;;;;;;1.84;47.39;102666.66;5127680;27;20491;-70
2022/12/18 07:32:13;;;;;;;46.60;19.37;;;;;;;1.17;49.97;102659.47;5111843;27;20336;-70
2022/12/18 07:34:39;;;;;;;50.03;19.20;;;;;;;1.57;49.00;102657.41;5129765;27;20165;-70
2022/12/18 07:37:04;;;;;;;44.43;19.57;;;;;;;1.55;48.90;102652.13;5112506;27;20034;-70
2022/12/18 07:39:30;;;;;;;47.27;18.03;;;;;;;1.34;50.06;102660.41;5112864;27;20512;-71
2022/12/18 07:44:40;;;;;;;43.27;17.93;;;;;;;1.68;47.90;102645.97;5128060;27;20042;-70
2022/12/18 07:47:05;;;;;;;43.93;17.57;;;;;;;1.63;47.39;102657.72;5130658;27;20292;-70
2022/12/18 07:49:30;;;;;;;41.80;16.63;;;;;;;1.15;49.40;102666.22;5110683;27;20118;-70
2022/12/18 07:51:57;;;;;;;35.70;17.13;;;;;;;1.39;49.00;102675.25;5111944;28;20467;-71
2022/12/18 07:54:23;;;;;;;45.10;17.23;;;;;;;1.33;48.48;102683.53;5112899;27;20039;-71
2022/12/18 07:56:48;;;;;;;41.50;17.60;;;;;;;1.05;49.65;102663.03;5109048;27;20296;-70
2022/12/18 07:59:14;;;;;;;46.77;19.10;;;;;;;1.57;48.69;102667.72;5113560;27;20273;-70
2022/12/18 08:01:39;;;;;;;41.30;17.33;;;;;;;1.86;48.34;102667.59;5131830;28;20150;-70
2022/12/18 08:04:05;;;;;;;42.13;17.17;;;;;;;1.45;48.05;102662.72;5111744;28;20079;-70
2022/12/18 08:06:30;;;;;;;45.70;17.87;;;;;;;2.19;47.02;102652.19;5130395;27;20062;-70
2022/12/18 08:08:56;;;;;;;43.53;18.40;;;;;;;1.91;49.09;102660.16;5112404;28;20042;-71
2022/12/18 08:11:23;;;;;;;38.77;16.83;;;;;;;1.78;48.18;102668.88;5128754;28;20489;-71
2022/12/18 08:13:49;;;;;;;41.23;17.30;;;;;;;2.01;47.41;102662.41;5112564;28;20681;-70
2022/12/18 08:16:15;;;;;;;49.47;19.17;;;;;;;1.70;48.72;102654.66;5112242;27;20265;-70
2022/12/18 08:18:40;;;;;;;44.33;17.93;;;;;;;2.02;47.74;102653.00;5106505;28;20501;-70
2022/12/18 08:21:14;;;;;;;41.20;18.50;;;;;;;2.09;48.18;102649.94;5111588;28;20038;-70
2022/12/18 08:23:40;;;;;;;41.30;16.63;;;;;;;1.05;50.11;102651.03;5109662;28;20026;-71
2022/12/18 08:26:06;;;;;;;43.30;17.53;;;;;;;2.05;48.52;102645.41;5112288;28;20293;-70
2022/12/18 08:28:32;;;;;;;42.47;16.57;;;;;;;2.04;46.63;102651.38;5111078;27;20051;-70
2022/12/18 08:30:57;;;;;;;43.70;16.97;;;;;;;1.61;48.74;102643.88;5130320;28;20033;-71
2022/12/18 08:33:23;;;;;;;32.37;15.30;;;;;;;1.65;48.02;102640.66;5128547;28;20601;-70
2022/12/18 08:35:48;;;;;;;46.70;17.10;;;;;;;2.29;47.44;102642.38;5131052;28;20027;-71
2022/12/18 08:38:14;;;;;;;40.97;17.27;;;;;;;2.19;47.30;102636.69;5108328;28;20103;-71
2022/12/18 08:40:39;;;;;;;39.77;18.63;;;;;;;2.06;48.95;102644.63;5111237;28;20543;-70
2022/12/18 08:45:50;;;;;;;40.10;17.53;;;;;;;1.99;48.94;102664.03;5097227;28;20080;-70
2022/12/18 08:48:15;;;;;;;38.73;16.90;;;;;;;2.51;47.88;102676.25;5108761;28;20328;-70
2022/12/18 08:50:41;;;;;;;39.57;17.93;;;;;;;2.60;47.35;102682.72;5110945;28;20034;-70
2022/12/18 08:53:06;;;;;;;40.80;17.37;;;;;;;2.18;47.81;102691.72;5111656;28;20024;-70
2022/12/18 08:55:32;;;;;;;37.57;16.63;;;;;;;2.48;48.37;102691.56;5124538;28;20032;-70
2022/12/18 08:57:57;;;;;;;43.37;18.93;;;;;;;2.04;48.37;102687.50;5109170;28;20126;-70
2022/12/18 09:00:22;;;;;;;41.07;17.67;;;;;;;2.25;48.64;102689.47;5122655;27;20027;-70
2022/12/18 09:02:48;;;;;;;40.30;16.80;;;;;;;2.36;48.16;102693.50;5114419;27;20047;-70
2022/12/18 09:05:13;;;;;;;41.03;16.83;;;;;;;1.91;48.59;102690.19;5116452;27;20037;-70
2022/12/18 09:07:38;;;;;;;42.63;18.03;;;;;;;1.61;49.96;102690.28;5131188;27;20410;-70
2022/12/18 09:10:04;;;;;;;33.77;15.60;;;;;;;1.77;50.17;102676.53;5106575;27;20371;-69
2022/12/18 09:12:30;;;;;;;36.73;16.57;;;;;;;2.03;49.81;102676.28;5111982;27;20038;-70
2022/12/18 09:14:56;;;;;;;34.60;17.23;;;;;;;2.32;48.52;102678.66;5118517;27;20326;-70
2022/12/18 09:17:21;;;;;;;25.93;11.83;;;;;;;1.66;49.77;102683.66;5099189;27;20482;-70
2022/12/18 09:19:47;;;;;;;35.33;16.67;;;;;;;2.57;49.32;102667.94;5102929;27;20557;-69
2022/12/18 09:22:12;;;;;;;38.90;15.67;;;;;;;2.36;49.08;102654.78;5110628;27;20439;-69
2022/12/18 09:24:38;;;;;;;40.27;16.07;;;;;;;2.53;49.27;102625.56;5131221;27;20031;-70
2022/12/18 09:27:03;;;;;;;40.30;17.43;;;;;;;2.23;48.49;102626.56;5112597;27;20028;-70
2022/12/18 09:29:28;;;;;;;37.63;16.90;;;;;;;2.63;49.45;102623.47;5111506;27;20023;-70
2022/12/18 09:31:54;;;;;;;35.37;16.63;;;;;;;2.95;48.32;102624.22;5115123;27;20127;-70
2022/12/18 09:34:21;;;;;;;35.50;16.00;;;;;;;3.20;47.67;102629.78;5109412;27;20031;-70
2022/12/18 09:36:47;;;;;;;38.67;16.73;;;;;;;3.62;47.10;102643.81;5132091;27;20023;-70
2022/12/18 09:39:12;;;;;;;41.30;16.40;;;;;;;3.67;46.18;102652.69;5133756;27;20731;-69
2022/12/18 09:41:49;;;;;;;42.07;16.80;;;;;;;3.37;48.29;102653.00;5129164;27;20071;-70
2022/12/18 09:44:39;;;;;;;39.87;14.90;;;;;;;3.30;47.97;102646.63;5133908;27;20498;-70
2022/12/18 09:47:13;;;;;;;40.07;15.90;;;;;;;3.09;48.94;102636.13;5112237;27;20292;-71
2022/12/18 09:49:43;;;;;;;30.87;14.10;;;;;;;3.17;48.33;102639.97;5132784;27;20275;-71
2022/12/18 09:52:17;;;;;;;35.57;16.37;;;;;;;3.14;48.56;102650.16;5113821;27;20288;-70
2022/12/18 09:54:49;;;;;;;33.63;14.73;;;;;;;2.94;49.50;102653.44;5114896;27;20312;-71
2022/12/18 09:57:21;;;;;;;35.58;15.75;;;;;;;2.44;49.67;102655.19;5112377;27;20289;-71
2022/12/18 09:59:53;;;;;;;26.60;11.50;;;;;;;2.74;50.51;102644.69;5109544;27;20023;-71
2022/12/18 10:02:24;;;;;;;26.98;12.60;;;;;;;2.83;49.33;102640.88;5109453;27;20051;-71
2022/12/18 10:05:07;;;;;;;31.53;15.30;;;;;;;3.16;48.25;102627.88;5114981;27;20474;-71
2022/12/18 10:07:46;;;;;;;35.00;15.37;;;;;;;3.16;48.95;102624.38;5129554;27;20297;-71
2022/12/18 10:10:26;;;;;;;35.70;16.17;;;;;;;3.47;48.72;102624.16;5103947;27;20325;-71
2022/12/18 10:12:51;;;;;;;30.80;15.23;;;;;;;2.88;48.82;102623.00;5112627;27;20285;-70
2022/12/18 10:15:30;;;;;;;32.43;14.33;;;;;;;3.40;48.48;102622.09;5113477;27;20851;-71
2022/12/18 10:18:13;;;;;;;32.27;14.77;;;;;;;3.36;49.08;102615.00;5128718;27;20485;-70
2022/12/18 10:20:45;;;;;;;32.97;14.60;;;;;;;3.00;50.49;102595.19;5121797;27;20319;-70
2022/12/18 10:23:10;;;;;;;33.67;14.67;;;;;;;2.80;50.54;102595.91;5108957;27;20287;-70
2022/12/18 10:25:51;;;;;;;34.97;14.80;;;;;;;2.41;50.35;102586.22;5107764;27;20407;-70
2022/12/18 10:28:18;;;;;;;30.70;14.33;;;;;;;3.20;49.51;102592.69;5113600;27;20031;-70
2022/12/18 10:30:44;;;;;;;37.00;15.67;;;;;;;3.74;49.44;102595.25;5128690;27;20315;-71
2022/12/18 10:33:17;;;;;;;28.50;13.47;;;;;;;3.54;49.42;102594.31;5127196;27;20284;-71
2022/12/18 10:35:43;;;;;;;32.50;14.20;;;;;;;3.66;48.39;102589.72;5124131;27;20023;-71
2022/12/18 10:38:14;;;;;;;30.77;15.77;;;;;;;3.34;49.69;102585.63;5112248;27;20023;-71
2022/12/18 10:40:56;;;;;;;35.97;14.93;;;;;;;4.04;48.33;102569.03;5112233;27;20027;-71
2022/12/18 10:43:28;;;;;;;31.65;14.38;;;;;;;3.88;47.66;102570.88;5112810;27;20367;-71
2022/12/18 10:46:00;;;;;;;30.27;14.55;;;;;;;3.64;49.24;102575.84;5131873;27;20047;-71
2022/12/18 10:48:26;;;;;;;34.30;14.47;;;;;;;3.44;49.67;102577.50;5112997;27;20431;-70
2022/12/18 10:50:51;;;;;;;29.67;13.63;;;;;;;3.49;48.78;102581.19;5110880;27;20299;-70
2022/12/18 10:53:23;;;;;;;31.33;14.13;;;;;;;4.00;47.72;102580.06;5103840;28;20649;-71
2022/12/18 10:55:51;;;;;;;34.30;14.30;;;;;;;3.94;48.42;102587.53;5112905;27;20015;-71
2022/12/18 10:58:24;;;;;;;30.80;13.50;;;;;;;4.40;47.60;102576.63;5131535;27;20023;-71
2022/12/18 11:01:05;;;;;;;38.10;15.63;;;;;;;4.12;48.05;102574.50;5130359;27;20324;-70
2022/12/18 11:03:37;;;;;;;33.43;15.37;;;;;;;4.07;48.28;102571.72;5111064;27;20290;-70
2022/12/18 11:06:17;;;;;;;33.08;14.35;;;;;;;4.81;47.19;102559.34;5113340;27;20792;-71
2022/12/18 11:08:57;;;;;;;31.90;15.37;;;;;;;4.72;47.22;102564.16;5105602;27;20511;-69
2022/12/18 11:11:23;;;;;;;31.93;15.17;;;;;;;4.48;47.19;102554.53;5103895;27;20701;-69
2022/12/18 11:14:03;;;;;;;28.27;15.03;;;;;;;4.32;47.52;102565.06;5120027;27;20776;-69
2022/12/18 11:16:33;;;;;;;33.20;15.27;;;;;;;4.75;48.25;102559.09;5100699;27;20799;-69
2022/12/18 11:19:20;;;;;;;33.17;16.60;;;;;;;4.72;47.01;102561.56;5101449;27;20288;-69
2022/12/18 11:21:46;;;;;;;34.73;15.87;;;;;;;5.04;46.64;102565.47;5103889;27;20787;-69
2022/12/18 11:24:25;;;;;;;34.53;16.97;;;;;;;4.76;47.10;102566.03;5099763;27;20292;-69
2022/12/18 11:26:51;;;;;;;34.93;16.33;;;;;;;5.77;45.26;102557.91;5120518;27;20027;-69
2022/12/18 11:29:24;;;;;;;39.07;16.23;;;;;;;5.83;45.21;102547.75;5100821;27;20290;-70
2022/12/18 11:31:49;;;;;;;;;;;;;;;5.55;46.08;102543.22;5121179;27;20475;-69